Time;durP1;ratioP1;P1;durP2;ratioP2;P2;SDS_P1;SDS_P2;PMS_P1;PMS_P2;Temp;Humidity;BMP_temperature;BMP_pressure;BME280_temperature;BME280_humidity;BME280_pressure;Samples;Min_cycle;Max_cycle;Signal;HPM_P1;HPM_P2
2023/09/20 04:04:40;;;;;;;0.30;0.30;;;13.20;99.90;;;;;;6059975;23;20415;-62
2023/09/20 04:07:06;;;;;;;0.30;0.20;;;13.10;99.90;;;;;;4953260;29;20456;-62
2023/09/20 04:09:32;;;;;;;0.30;0.30;;;13.20;99.90;;;;;;4955112;29;20423;-63
2023/09/20 04:11:59;;;;;;;0.30;0.30;;;13.20;99.90;;;;;;4954927;29;20784;-62
2023/09/20 04:14:25;;;;;;;0.30;0.30;;;13.20;99.90;;;;;;4954510;28;20465;-62
2023/09/20 04:16:53;;;;;;;0.30;0.30;;;13.10;99.90;;;;;;4937659;29;20419;-65
2023/09/20 04:19:22;;;;;;;0.33;0.33;;;13.10;99.90;;;;;;4954943;29;20516;-63
2023/09/20 04:21:49;;;;;;;0.30;0.30;;;13.10;99.90;;;;;;4955068;29;20925;-62
2023/09/20 04:24:16;;;;;;;1.47;0.50;;;13.00;99.90;;;;;;4954628;29;20425;-62
2023/09/20 04:26:41;;;;;;;0.30;0.20;;;13.00;99.90;;;;;;4954761;28;20418;-62
2023/09/20 04:29:07;;;;;;;0.30;0.20;;;13.00;99.90;;;;;;4955945;28;20769;-62
2023/09/20 04:31:33;;;;;;;0.30;0.30;;;13.00;99.90;;;;;;4958295;29;20222;-62
2023/09/20 04:34:00;;;;;;;0.30;0.30;;;13.00;99.90;;;;;;4957777;29;20455;-62
2023/09/20 04:36:28;;;;;;;0.30;0.30;;;13.00;99.90;;;;;;4957243;28;20222;-62
2023/09/20 04:38:57;;;;;;;0.30;0.20;;;13.00;99.90;;;;;;4958125;29;20457;-62
2023/09/20 04:41:22;;;;;;;0.30;0.30;;;13.10;99.90;;;;;;4957230;29;20915;-62
2023/09/20 04:43:48;;;;;;;0.30;0.30;;;13.10;99.90;;;;;;4957627;29;20458;-61
2023/09/20 04:46:14;;;;;;;0.30;0.30;;;13.10;99.90;;;;;;4957906;29;20197;-62
2023/09/20 04:48:40;;;;;;;0.30;0.30;;;13.10;99.90;;;;;;4958121;29;20412;-62
2023/09/20 04:51:06;;;;;;;0.30;0.20;;;13.10;99.90;;;;;;4958096;29;20434;-61
2023/09/20 04:53:35;;;;;;;0.30;0.27;;;13.10;99.90;;;;;;4958089;29;20410;-61
2023/09/20 04:56:02;;;;;;;0.30;0.30;;;13.00;99.90;;;;;;4958020;29;20290;-61
2023/09/20 04:58:27;;;;;;;0.30;0.30;;;13.10;99.90;;;;;;4957920;29;20931;-61
2023/09/20 05:00:54;;;;;;;0.30;0.30;;;13.10;99.90;;;;;;4958043;29;20271;-62
2023/09/20 05:03:20;;;;;;;0.30;0.20;;;13.00;99.90;;;;;;4957438;29;20213;-62
2023/09/20 05:05:50;;;;;;;0.30;0.30;;;13.00;99.90;;;;;;4957175;29;20881;-62
2023/09/20 05:08:16;;;;;;;0.43;0.43;;;13.00;99.90;;;;;;4957765;29;20899;-62
2023/09/20 05:10:44;;;;;;;0.30;0.30;;;12.90;99.90;;;;;;4957947;29;20412;-62
2023/09/20 05:13:10;;;;;;;0.30;0.30;;;12.90;99.90;;;;;;4957486;29;20415;-61
2023/09/20 05:15:39;;;;;;;0.30;0.20;;;12.90;99.90;;;;;;4956889;29;20454;-60
2023/09/20 05:18:06;;;;;;;0.30;0.30;;;12.90;99.90;;;;;;4957246;29;20457;-62
2023/09/20 05:20:32;;;;;;;0.40;0.40;;;12.80;99.90;;;;;;4957371;29;20451;-62
2023/09/20 05:22:59;;;;;;;0.30;0.30;;;12.80;99.90;;;;;;4957266;29;20415;-62
2023/09/20 05:25:25;;;;;;;0.30;0.30;;;12.80;99.90;;;;;;4956892;29;20468;-62
2023/09/20 05:27:51;;;;;;;0.30;0.30;;;12.80;99.90;;;;;;4957355;29;20425;-62
2023/09/20 05:30:18;;;;;;;0.30;0.20;;;12.80;99.90;;;;;;4957220;29;20419;-62
2023/09/20 05:32:45;;;;;;;0.30;0.30;;;12.80;99.90;;;;;;4957445;29;20426;-62
2023/09/20 05:35:11;;;;;;;0.30;0.30;;;12.80;99.90;;;;;;4956792;29;20446;-62
2023/09/20 05:37:38;;;;;;;0.30;0.20;;;12.80;99.90;;;;;;4957351;29;20458;-62
2023/09/20 05:40:07;;;;;;;0.30;0.20;;;12.80;99.90;;;;;;4956625;28;20451;-62
2023/09/20 05:42:32;;;;;;;0.30;0.30;;;12.90;99.90;;;;;;4956735;29;20428;-62
2023/09/20 05:44:58;;;;;;;0.70;0.70;;;13.00;99.90;;;;;;4956354;29;20448;-62
2023/09/20 05:47:24;;;;;;;0.30;0.27;;;13.00;99.90;;;;;;4957053;29;20692;-62
2023/09/20 05:49:50;;;;;;;0.30;0.30;;;13.10;99.90;;;;;;4956862;29;20175;-62
2023/09/20 05:52:16;;;;;;;0.30;0.27;;;13.20;99.90;;;;;;4957105;29;20742;-62
2023/09/20 05:54:42;;;;;;;0.80;0.80;;;13.30;99.90;;;;;;4956417;29;20246;-62
2023/09/20 05:57:08;;;;;;;0.30;0.30;;;13.40;99.90;;;;;;4956802;29;20211;-62
2023/09/20 05:59:33;;;;;;;0.30;0.30;;;13.50;99.90;;;;;;4956702;29;20470;-62
2023/09/20 06:01:59;;;;;;;0.30;0.20;;;13.70;99.90;;;;;;4956918;29;20650;-62
2023/09/20 06:04:25;;;;;;;0.43;0.43;;;13.80;99.90;;;;;;4956859;29;20181;-62
2023/09/20 06:06:50;;;;;;;0.30;0.20;;;13.90;99.90;;;;;;4956555;28;20200;-62
2023/09/20 06:09:18;;;;;;;0.33;0.33;;;14.00;99.90;;;;;;4956368;29;20227;-62
2023/09/20 06:11:44;;;;;;;0.30;0.30;;;14.20;99.90;;;;;;4956467;29;20191;-63
2023/09/20 06:14:10;;;;;;;0.30;0.30;;;14.30;99.90;;;;;;4956424;29;20416;-63
2023/09/20 06:16:35;;;;;;;0.30;0.27;;;14.50;99.90;;;;;;4956395;29;20193;-62
2023/09/20 06:19:01;;;;;;;0.30;0.30;;;14.70;99.90;;;;;;4956515;29;20733;-62
2023/09/20 06:21:26;;;;;;;0.30;0.30;;;14.90;99.90;;;;;;4956390;29;20184;-63
2023/09/20 06:23:52;;;;;;;0.30;0.20;;;15.00;99.90;;;;;;4955759;29;20180;-62
2023/09/20 06:26:18;;;;;;;0.30;0.30;;;15.20;99.90;;;;;;4956297;29;20207;-62
2023/09/20 06:28:44;;;;;;;0.40;0.40;;;15.40;99.90;;;;;;4938968;29;20181;-61
2023/09/20 06:31:16;;;;;;;0.30;0.30;;;15.60;99.90;;;;;;4956257;29;20417;-62
2023/09/20 06:33:44;;;;;;;0.30;0.30;;;15.80;99.90;;;;;;4955844;29;20599;-62
2023/09/20 06:36:20;;;;;;;0.30;0.20;;;16.20;99.90;;;;;;4955937;29;20449;-62
2023/09/20 06:38:49;;;;;;;0.30;0.27;;;16.50;99.90;;;;;;4955475;29;20465;-62
2023/09/20 06:41:15;;;;;;;0.30;0.30;;;16.80;99.90;;;;;;4956238;29;20760;-63
2023/09/20 06:43:42;;;;;;;0.30;0.30;;;17.00;99.90;;;;;;4955637;29;20413;-62
2023/09/20 06:46:08;;;;;;;0.30;0.20;;;17.10;99.90;;;;;;4955730;29;20942;-62
2023/09/20 06:48:34;;;;;;;0.30;0.30;;;17.20;99.90;;;;;;4956398;29;20481;-62
2023/09/20 06:51:00;;;;;;;0.70;0.70;;;17.30;99.90;;;;;;4955949;29;20417;-62
2023/09/20 06:53:26;;;;;;;0.30;0.30;;;17.30;99.90;;;;;;4955526;28;20586;-60
2023/09/20 06:55:51;;;;;;;0.30;0.30;;;17.30;99.90;;;;;;4955324;29;20436;-61
2023/09/20 06:58:18;;;;;;;0.30;0.30;;;17.50;99.90;;;;;;4955778;29;20212;-62
2023/09/20 07:00:43;;;;;;;0.30;0.30;;;17.60;99.90;;;;;;4955853;29;20169;-62
2023/09/20 07:03:10;;;;;;;0.30;0.30;;;17.80;99.90;;;;;;4955951;29;20412;-63
2023/09/20 07:05:36;;;;;;;0.30;0.20;;;18.00;99.90;;;;;;4955173;29;20197;-62
2023/09/20 07:08:03;;;;;;;0.97;0.50;;;18.30;99.90;;;;;;4955474;29;20458;-62
2023/09/20 07:10:29;;;;;;;0.30;0.30;;;18.60;99.90;;;;;;4955718;29;20223;-62
2023/09/20 07:12:55;;;;;;;0.30;0.30;;;18.90;99.90;;;;;;4955520;29;20771;-62
2023/09/20 07:15:24;;;;;;;0.30;0.30;;;19.20;99.90;;;;;;4954723;29;20452;-62
2023/09/20 07:18:00;;;;;;;0.30;0.30;;;19.30;99.90;;;;;;4955563;29;20597;-63
2023/09/20 07:20:29;;;;;;;0.30;0.30;;;19.40;99.90;;;;;;4955521;29;20878;-61
2023/09/20 07:22:55;;;;;;;0.30;0.20;;;19.40;99.90;;;;;;4955250;29;20496;-63
2023/09/20 07:25:22;;;;;;;0.30;0.30;;;19.40;99.90;;;;;;4954748;29;20858;-62
2023/09/20 07:27:49;;;;;;;0.30;0.30;;;19.60;99.90;;;;;;4955188;29;20438;-63
2023/09/20 07:30:20;;;;;;;0.30;0.30;;;19.80;99.90;;;;;;4955464;29;20424;-63
2023/09/20 07:32:55;;;;;;;0.30;0.30;;;20.10;99.90;;;;;;4955330;29;20427;-63
2023/09/20 07:35:27;;;;;;;0.30;0.20;;;20.30;99.90;;;;;;4954851;29;20456;-63
2023/09/20 07:37:56;;;;;;;0.30;0.30;;;20.50;99.90;;;;;;4955347;29;20553;-61
2023/09/20 07:40:25;;;;;;;0.30;0.20;;;20.80;99.90;;;;;;4955270;29;20424;-62
2023/09/20 07:42:52;;;;;;;0.30;0.20;;;21.00;99.90;;;;;;4954863;29;20420;-61
2023/09/20 07:45:22;;;;;;;0.30;0.20;;;21.20;99.90;;;;;;4954718;29;20432;-62
2023/09/20 07:47:47;;;;;;;0.30;0.30;;;21.50;99.90;;;;;;4955525;29;20394;-62
2023/09/20 07:50:14;;;;;;;0.30;0.20;;;21.80;99.90;;;;;;4955620;29;20395;-63
2023/09/20 07:52:40;;;;;;;0.30;0.20;;;22.40;99.90;;;;;;4955259;29;20336;-63
2023/09/20 07:55:08;;;;;;;0.30;0.20;;;22.90;99.90;;;;;;4954689;29;20439;-63
2023/09/20 07:57:33;;;;;;;0.30;0.20;;;23.30;99.10;;;;;;4954597;29;20490;-63
2023/09/20 07:59:59;;;;;;;0.30;0.30;;;23.50;99.00;;;;;;4955118;29;20457;-63
2023/09/20 08:02:25;;;;;;;0.30;0.20;;;23.70;98.60;;;;;;4955163;29;20193;-63
2023/09/20 08:04:51;;;;;;;0.30;0.20;;;24.10;97.50;;;;;;4956850;28;20434;-63
2023/09/20 08:07:17;;;;;;;0.40;0.30;;;24.60;96.70;;;;;;4958576;29;20465;-63
2023/09/20 08:09:44;;;;;;;0.30;0.30;;;25.40;95.50;;;;;;4959033;29;20184;-63
2023/09/20 08:12:11;;;;;;;0.83;0.40;;;26.20;94.50;;;;;;4958461;29;20402;-63
2023/09/20 08:14:37;;;;;;;0.30;0.30;;;26.40;93.50;;;;;;4941077;29;20562;-64
2023/09/20 08:19:49;;;;;;;0.30;0.20;;;27.20;92.80;;;;;;4958888;29;20912;-63
2023/09/20 08:22:17;;;;;;;0.30;0.30;;;28.00;90.70;;;;;;4941377;29;20933;-63
2023/09/20 09:00:31;;;;;;;0.37;0.37;;;35.20;65.30;;;;;;4958127;29;20442;-62
2023/09/20 09:02:58;;;;;;;1.67;0.63;;;35.90;64.30;;;;;;4957694;29;20421;-62
2023/09/20 09:05:27;;;;;;;0.50;0.50;;;36.30;63.00;;;;;;4957353;29;20488;-62
2023/09/20 09:07:53;;;;;;;0.70;0.50;;;36.40;62.10;;;;;;4957652;29;20547;-62
2023/09/20 09:10:19;;;;;;;1.43;1.43;;;36.70;60.10;;;;;;4957697;29;20417;-62
2023/09/20 09:12:45;;;;;;;0.63;0.63;;;36.90;59.80;;;;;;4957756;29;20431;-62
2023/09/20 09:15:12;;;;;;;0.50;0.50;;;37.30;58.40;;;;;;4957070;28;20571;-62
2023/09/20 09:17:41;;;;;;;0.40;0.40;;;37.60;56.90;;;;;;4957358;29;20208;-62
2023/09/20 09:20:19;;;;;;;1.27;1.17;;;37.40;57.70;;;;;;4939861;29;20415;-62
2023/09/20 09:22:45;;;;;;;0.50;0.50;;;37.00;56.70;;;;;;4957833;29;20782;-62
2023/09/20 09:25:16;;;;;;;0.53;0.53;;;36.80;58.30;;;;;;4956924;29;20432;-62
2023/09/20 09:27:43;;;;;;;0.43;0.43;;;36.80;56.90;;;;;;4957243;29;20766;-62
2023/09/20 09:30:14;;;;;;;0.60;0.60;;;36.90;57.30;;;;;;4957465;29;20424;-72
2023/09/20 09:32:41;;;;;;;0.40;0.40;;;37.10;57.40;;;;;;4956980;29;20448;-74
2023/09/20 09:35:07;;;;;;;0.47;0.47;;;37.30;56.10;;;;;;4956933;29;20428;-69
2023/09/20 09:37:34;;;;;;;0.87;0.87;;;37.40;56.20;;;;;;4957005;29;20408;-68
2023/09/20 09:40:02;;;;;;;0.40;0.40;;;37.30;56.20;;;;;;4957051;29;20913;-63
2023/09/20 09:42:31;;;;;;;0.60;0.60;;;37.00;55.90;;;;;;4956959;29;20413;-64
2023/09/20 09:44:58;;;;;;;0.40;0.40;;;36.70;56.80;;;;;;4956545;29;20428;-64
2023/09/20 09:47:24;;;;;;;0.50;0.50;;;36.50;57.70;;;;;;4956794;29;20515;-64
2023/09/20 09:49:52;;;;;;;0.40;0.40;;;36.40;57.10;;;;;;4957109;29;20417;-64
2023/09/20 09:52:26;;;;;;;0.40;0.40;;;36.30;57.30;;;;;;4956825;29;20416;-63
2023/09/20 09:54:53;;;;;;;0.50;0.50;;;36.20;56.00;;;;;;4956398;29;21323;-63
2023/09/20 09:57:19;;;;;;;0.53;0.53;;;35.90;56.70;;;;;;4957076;29;20441;-63
2023/09/20 09:59:46;;;;;;;0.50;0.50;;;35.70;57.10;;;;;;4956610;29;20416;-63
2023/09/20 10:02:23;;;;;;;0.47;0.40;;;35.80;56.00;;;;;;4956344;29;20413;-70
2023/09/20 10:05:01;;;;;;;0.40;0.40;;;36.00;56.50;;;;;;4956231;29;20496;-68
2023/09/20 10:07:33;;;;;;;0.30;0.30;;;35.80;56.50;;;;;;4939329;29;20531;-69
2023/09/20 10:10:12;;;;;;;0.70;0.70;;;35.70;56.00;;;;;;4956455;29;20404;-67
2023/09/20 10:12:44;;;;;;;0.50;0.50;;;35.80;55.90;;;;;;4956710;29;20404;-66
2023/09/20 10:15:11;;;;;;;0.40;0.40;;;35.70;55.80;;;;;;4938497;29;20873;-69
2023/09/20 10:17:51;;;;;;;0.43;0.43;;;35.10;57.10;;;;;;4956115;29;20468;-69
2023/09/20 10:20:18;;;;;;;0.50;0.50;;;34.60;57.30;;;;;;4955641;29;20404;-68
2023/09/20 10:22:48;;;;;;;0.60;0.60;;;34.40;57.70;;;;;;4956139;29;20449;-69
2023/09/20 10:25:32;;;;;;;0.37;0.37;;;34.50;57.70;;;;;;4938670;29;20512;-70
2023/09/20 10:28:03;;;;;;;0.40;0.40;;;34.50;58.00;;;;;;4955521;28;20432;-70
2023/09/20 10:30:34;;;;;;;0.40;0.40;;;34.60;58.20;;;;;;4956139;29;20745;-68
2023/09/20 10:33:03;;;;;;;0.50;0.50;;;34.50;57.60;;;;;;4956198;29;20409;-69
2023/09/20 10:35:30;;;;;;;0.50;0.40;;;34.20;57.50;;;;;;4953658;29;20448;-69
2023/09/20 10:38:00;;;;;;;0.43;0.40;;;34.20;57.70;;;;;;4953981;29;20555;-68
2023/09/20 10:40:44;;;;;;;0.43;0.40;;;34.30;57.80;;;;;;4954057;29;20503;-68
2023/09/20 10:43:10;;;;;;;0.60;0.60;;;34.40;55.80;;;;;;4953857;29;20774;-68
2023/09/20 10:45:36;;;;;;;0.30;0.30;;;34.50;55.90;;;;;;4953780;29;20532;-69
2023/09/20 10:48:06;;;;;;;0.60;0.60;;;34.30;56.10;;;;;;4954022;29;20181;-68
2023/09/20 10:50:54;;;;;;;0.37;0.37;;;34.00;55.60;;;;;;4955032;29;20444;-69
2023/09/20 10:53:22;;;;;;;0.37;0.37;;;33.60;54.90;;;;;;4955675;29;20420;-68
2023/09/20 10:55:51;;;;;;;0.70;0.40;;;33.40;55.50;;;;;;4955409;29;20969;-69
2023/09/20 10:58:23;;;;;;;0.30;0.30;;;33.30;55.90;;;;;;4955556;29;20459;-69
2023/09/20 11:00:50;;;;;;;0.37;0.30;;;33.30;56.30;;;;;;4955770;29;20420;-68
2023/09/20 11:03:17;;;;;;;0.47;0.40;;;33.30;56.40;;;;;;4955748;29;20804;-68
2023/09/20 11:05:44;;;;;;;0.30;0.30;;;33.10;56.00;;;;;;4955040;29;20444;-67
2023/09/20 11:08:13;;;;;;;0.40;0.30;;;32.40;56.30;;;;;;4955784;29;20409;-66
2023/09/20 11:10:46;;;;;;;0.30;0.20;;;31.50;57.00;;;;;;4955729;29;20812;-67
2023/09/20 11:13:14;;;;;;;0.30;0.20;;;30.60;58.50;;;;;;4954984;29;20454;-65
2023/09/20 11:15:41;;;;;;;1.27;0.73;;;29.90;58.70;;;;;;4955041;29;20449;-65
2023/09/20 11:18:08;;;;;;;0.50;0.50;;;29.20;57.80;;;;;;4955190;29;20437;-67
2023/09/20 11:20:37;;;;;;;0.60;0.40;;;28.80;59.20;;;;;;4955267;29;20398;-66
2023/09/20 11:23:03;;;;;;;0.30;0.30;;;28.40;59.80;;;;;;4955438;29;20446;-69
2023/09/20 11:25:29;;;;;;;0.30;0.27;;;28.10;59.70;;;;;;4954925;29;20445;-68
2023/09/20 11:27:58;;;;;;;0.30;0.30;;;27.80;59.90;;;;;;4955086;29;20424;-68
2023/09/20 11:30:27;;;;;;;0.30;0.30;;;27.50;59.60;;;;;;4954893;29;20843;-67
2023/09/20 11:32:56;;;;;;;0.40;0.30;;;27.30;60.30;;;;;;4955392;29;20454;-66
2023/09/20 11:35:32;;;;;;;0.30;0.30;;;27.10;60.20;;;;;;4937632;29;20448;-63
2023/09/20 11:37:58;;;;;;;0.30;0.30;;;26.90;60.60;;;;;;4954535;29;20466;-61
2023/09/20 11:40:23;;;;;;;0.30;0.30;;;26.60;61.50;;;;;;4954699;29;20847;-62
2023/09/20 11:42:52;;;;;;;0.30;0.30;;;26.40;64.00;;;;;;4954751;29;20183;-61
2023/09/20 11:45:17;;;;;;;0.50;0.30;;;26.30;65.60;;;;;;4954736;29;20208;-61
2023/09/20 11:47:44;;;;;;;0.40;0.40;;;26.20;67.50;;;;;;4955295;29;20779;-61
2023/09/20 11:50:13;;;;;;;0.40;0.40;;;26.10;66.70;;;;;;4955244;29;20277;-61
2023/09/20 11:52:48;;;;;;;0.30;0.20;;;26.20;67.50;;;;;;4955033;29;20396;-61
2023/09/20 11:55:15;;;;;;;0.40;0.30;;;26.20;67.90;;;;;;4954471;29;20440;-65
2023/09/20 11:57:48;;;;;;;0.30;0.20;;;26.20;67.50;;;;;;4954561;29;20400;-67
2023/09/20 12:00:25;;;;;;;0.30;0.20;;;26.20;67.30;;;;;;4955040;29;20430;-73
2023/09/20 12:02:53;;;;;;;0.37;0.37;;;26.10;69.50;;;;;;4955225;29;20405;-73
2023/09/20 12:05:19;;;;;;;0.40;0.30;;;26.10;68.20;;;;;;4954649;29;20413;-63
2023/09/20 12:08:02;;;;;;;0.30;0.30;;;26.10;69.00;;;;;;4954827;29;20765;-65
2023/09/20 12:10:29;;;;;;;0.30;0.20;;;26.00;68.20;;;;;;4955077;29;20446;-63
2023/09/20 12:12:55;;;;;;;0.30;0.20;;;25.90;68.60;;;;;;4954403;29;20559;-64
2023/09/20 12:15:23;;;;;;;0.30;0.30;;;25.80;72.50;;;;;;4954523;29;20868;-63
2023/09/20 12:17:55;;;;;;;0.30;0.20;;;25.80;71.20;;;;;;4954880;29;20474;-66
2023/09/20 12:20:24;;;;;;;0.30;0.20;;;25.80;72.00;;;;;;4954921;29;20408;-66
2023/09/20 12:22:50;;;;;;;0.30;0.30;;;25.90;73.90;;;;;;4954796;29;20419;-61
2023/09/20 12:25:16;;;;;;;0.30;0.30;;;26.00;75.30;;;;;;4954782;29;20528;-62
2023/09/20 12:27:48;;;;;;;0.70;0.30;;;26.00;75.40;;;;;;4954654;29;20986;-62
2023/09/20 12:30:14;;;;;;;0.30;0.30;;;26.10;71.30;;;;;;4954776;29;20399;-68
2023/09/20 12:32:41;;;;;;;0.30;0.30;;;26.00;71.60;;;;;;4954052;29;20417;-70
2023/09/20 12:35:09;;;;;;;0.30;0.30;;;25.90;73.30;;;;;;4936582;29;20571;-69
2023/09/20 12:37:35;;;;;;;0.30;0.30;;;26.00;74.30;;;;;;4954477;29;20953;-68
2023/09/20 12:40:06;;;;;;;0.30;0.30;;;26.00;74.30;;;;;;4954579;29;20881;-68
2023/09/20 12:42:33;;;;;;;0.30;0.30;;;26.10;74.90;;;;;;4954187;29;20420;-69
2023/09/20 12:45:01;;;;;;;0.30;0.20;;;26.10;75.10;;;;;;4954170;29;20464;-68
2023/09/20 12:47:27;;;;;;;0.30;0.30;;;26.10;74.80;;;;;;4954723;29;20765;-68
2023/09/20 12:49:52;;;;;;;0.30;0.30;;;26.10;75.40;;;;;;4954824;28;20410;-69
2023/09/20 12:52:18;;;;;;;0.30;0.30;;;26.00;76.30;;;;;;4958051;29;20635;-68
2023/09/20 12:54:44;;;;;;;0.60;0.50;;;26.00;75.80;;;;;;4957567;29;20258;-69
2023/09/20 12:57:09;;;;;;;0.30;0.30;;;26.00;75.40;;;;;;4957804;29;20616;-68
2023/09/20 12:59:36;;;;;;;0.30;0.27;;;26.00;74.70;;;;;;4958016;29;20209;-68
2023/09/20 13:02:01;;;;;;;1.13;0.50;;;26.00;74.90;;;;;;4957919;29;20650;-69
2023/09/20 13:04:27;;;;;;;0.30;0.20;;;25.90;75.90;;;;;;4957030;29;20417;-68
2023/09/20 13:06:53;;;;;;;0.30;0.20;;;25.90;76.80;;;;;;4957621;29;20204;-70
2023/09/20 13:09:19;;;;;;;0.30;0.20;;;25.90;76.40;;;;;;4940578;29;20252;-68
2023/09/20 13:11:46;;;;;;;0.40;0.40;;;25.90;77.60;;;;;;4957577;29;20417;-70
2023/09/20 13:14:12;;;;;;;0.30;0.30;;;26.00;78.10;;;;;;4957298;29;20735;-70
2023/09/20 13:16:40;;;;;;;0.30;0.30;;;26.00;77.70;;;;;;4957537;29;20503;-69
2023/09/20 13:19:07;;;;;;;0.30;0.20;;;26.10;76.60;;;;;;4957254;29;20471;-69
2023/09/20 13:21:33;;;;;;;0.40;0.30;;;26.10;76.60;;;;;;4957349;29;20739;-68
2023/09/20 13:23:59;;;;;;;0.30;0.20;;;26.20;76.30;;;;;;4956440;29;20425;-68
2023/09/20 13:26:25;;;;;;;0.30;0.30;;;26.10;77.00;;;;;;4957148;29;20247;-68
2023/09/20 13:28:51;;;;;;;0.30;0.20;;;26.10;76.20;;;;;;4956963;29;20181;-69
2023/09/20 13:31:17;;;;;;;0.40;0.37;;;26.10;77.10;;;;;;4956972;29;20425;-68
2023/09/20 13:33:43;;;;;;;0.30;0.30;;;26.10;76.20;;;;;;4957069;29;20189;-69
2023/09/20 13:36:10;;;;;;;0.60;0.53;;;26.10;77.00;;;;;;4957372;29;20419;-69
2023/09/20 13:38:36;;;;;;;0.30;0.20;;;26.10;76.60;;;;;;4957283;29;20437;-68
2023/09/20 13:41:02;;;;;;;0.30;0.30;;;26.10;77.80;;;;;;4956710;29;20719;-69
2023/09/20 13:43:28;;;;;;;0.30;0.30;;;26.10;76.70;;;;;;4957140;29;20875;-69
2023/09/20 13:45:54;;;;;;;0.30;0.27;;;26.00;76.00;;;;;;4956807;29;20433;-69
2023/09/20 13:48:20;;;;;;;0.30;0.30;;;26.00;75.70;;;;;;4957015;29;20173;-69
2023/09/20 13:50:46;;;;;;;0.30;0.20;;;26.00;76.40;;;;;;4957265;29;20420;-69
2023/09/20 13:53:12;;;;;;;0.30;0.20;;;26.00;77.90;;;;;;4956870;29;20200;-69
2023/09/20 13:55:38;;;;;;;0.30;0.20;;;26.00;75.90;;;;;;4956066;29;20212;-69
2023/09/20 13:58:03;;;;;;;0.40;0.40;;;26.00;75.20;;;;;;4956825;29;20452;-68
2023/09/20 14:00:29;;;;;;;0.30;0.20;;;26.00;75.60;;;;;;4956687;29;20635;-68
2023/09/20 14:02:56;;;;;;;0.30;0.20;;;26.00;76.50;;;;;;4955907;28;20173;-69
2023/09/20 14:05:23;;;;;;;0.30;0.20;;;25.90;75.50;;;;;;4956302;29;20905;-70
2023/09/20 14:07:50;;;;;;;0.30;0.20;;;25.90;75.80;;;;;;4956695;28;20440;-69
2023/09/20 14:10:17;;;;;;;0.30;0.20;;;25.80;76.40;;;;;;4939264;29;20424;-67
2023/09/20 14:12:45;;;;;;;0.30;0.30;;;25.90;76.20;;;;;;4956666;29;20503;-69
2023/09/20 14:15:15;;;;;;;0.30;0.30;;;25.90;76.10;;;;;;4956058;29;20432;-69
2023/09/20 14:17:48;;;;;;;0.30;0.20;;;25.90;76.90;;;;;;4956479;29;20575;-67
2023/09/20 14:20:18;;;;;;;0.30;0.30;;;26.00;75.60;;;;;;4956767;29;20390;-68
2023/09/20 14:22:54;;;;;;;0.30;0.27;;;26.00;74.30;;;;;;4956014;29;20420;-69
2023/09/20 14:25:25;;;;;;;0.30;0.20;;;26.00;74.30;;;;;;4955901;29;20436;-69
2023/09/20 14:27:51;;;;;;;0.30;0.30;;;26.00;74.30;;;;;;4956348;29;20910;-70
2023/09/20 14:30:18;;;;;;;0.30;0.20;;;26.00;73.80;;;;;;4956266;29;20379;-71
2023/09/20 14:32:49;;;;;;;0.30;0.30;;;26.00;74.20;;;;;;4956163;29;20416;-71
2023/09/20 14:35:15;;;;;;;0.30;0.20;;;26.00;73.70;;;;;;4955858;29;20432;-68
2023/09/20 14:37:45;;;;;;;0.30;0.30;;;26.10;73.80;;;;;;4955683;29;20402;-70
2023/09/20 14:40:18;;;;;;;0.30;0.30;;;26.10;74.20;;;;;;4956211;29;20503;-69
2023/09/20 14:42:45;;;;;;;0.67;0.60;;;26.10;73.70;;;;;;4956211;29;20397;-68
2023/09/20 14:45:13;;;;;;;0.30;0.20;;;26.10;73.90;;;;;;4955630;29;20432;-69
2023/09/20 14:47:41;;;;;;;0.30;0.30;;;26.10;72.60;;;;;;4955970;29;20398;-70
2023/09/20 14:50:14;;;;;;;0.30;0.20;;;26.10;73.20;;;;;;4938410;29;20938;-70
2023/09/20 14:52:40;;;;;;;0.30;0.20;;;26.10;72.80;;;;;;4955849;29;20448;-69
2023/09/20 14:55:07;;;;;;;0.30;0.30;;;26.00;73.50;;;;;;4955494;29;20399;-69
2023/09/20 14:57:33;;;;;;;0.30;0.30;;;26.00;73.40;;;;;;4955877;29;20503;-70
2023/09/20 15:00:00;;;;;;;0.30;0.30;;;26.00;73.80;;;;;;4956030;29;20922;-69
2023/09/20 15:02:26;;;;;;;0.30;0.20;;;26.00;74.40;;;;;;4955794;29;20208;-71
2023/09/20 15:04:52;;;;;;;0.30;0.20;;;26.00;74.70;;;;;;4955007;29;20524;-69
2023/09/20 15:07:17;;;;;;;0.30;0.20;;;26.00;75.40;;;;;;4955782;29;20535;-69
2023/09/20 15:09:46;;;;;;;0.33;0.33;;;26.00;75.00;;;;;;4955463;29;20177;-69
2023/09/20 15:12:15;;;;;;;0.30;0.30;;;25.90;74.90;;;;;;4955469;29;20228;-69
2023/09/20 15:14:42;;;;;;;0.30;0.30;;;25.90;74.90;;;;;;4954944;28;20415;-69
2023/09/20 15:17:08;;;;;;;0.50;0.30;;;25.80;74.90;;;;;;4955631;29;20566;-69
2023/09/20 15:19:33;;;;;;;0.30;0.30;;;25.80;74.80;;;;;;4954550;29;20464;-69
2023/09/20 15:21:59;;;;;;;0.30;0.20;;;25.70;75.20;;;;;;4955377;29;20212;-69
2023/09/20 15:24:25;;;;;;;0.30;0.30;;;25.70;76.20;;;;;;4954947;29;20169;-69
2023/09/20 15:26:52;;;;;;;0.30;0.30;;;25.70;76.10;;;;;;4938180;29;20654;-67
2023/09/20 15:29:18;;;;;;;0.30;0.30;;;25.70;75.90;;;;;;4955047;29;20203;-72
2023/09/20 15:31:45;;;;;;;0.30;0.20;;;25.70;76.30;;;;;;4955538;29;20425;-67
2023/09/20 15:34:12;;;;;;;0.30;0.27;;;25.70;76.20;;;;;;4954521;29;20572;-67
2023/09/20 15:36:37;;;;;;;0.30;0.27;;;25.70;75.80;;;;;;4954899;29;20424;-68
2023/09/20 15:39:03;;;;;;;0.30;0.20;;;25.70;76.00;;;;;;4955113;29;20487;-69
2023/09/20 15:41:29;;;;;;;0.30;0.20;;;25.60;76.50;;;;;;4955399;29;20169;-68
2023/09/20 15:43:54;;;;;;;0.37;0.27;;;25.60;77.10;;;;;;4954978;29;20239;-69
2023/09/20 15:46:20;;;;;;;0.30;0.30;;;25.70;77.30;;;;;;4955235;29;20197;-68
2023/09/20 15:48:46;;;;;;;0.30;0.30;;;25.60;78.30;;;;;;4954799;29;20185;-68
2023/09/20 15:51:12;;;;;;;0.30;0.20;;;25.60;78.30;;;;;;4955040;29;20189;-70
2023/09/20 15:53:38;;;;;;;0.30;0.30;;;25.60;78.70;;;;;;4955080;29;20394;-67
2023/09/20 15:56:06;;;;;;;0.30;0.30;;;25.60;79.60;;;;;;4955143;29;20437;-69
2023/09/20 15:58:32;;;;;;;0.30;0.20;;;25.50;80.20;;;;;;4955094;29;20213;-70
2023/09/20 16:00:58;;;;;;;0.30;0.20;;;25.50;80.30;;;;;;4954565;29;20808;-70
2023/09/20 16:03:26;;;;;;;0.30;0.20;;;25.40;80.20;;;;;;4955093;29;20412;-68
2023/09/20 16:05:52;;;;;;;0.30;0.30;;;25.40;80.40;;;;;;4937121;28;20476;-70
2023/09/20 16:08:20;;;;;;;0.30;0.30;;;25.40;79.90;;;;;;4955180;29;20395;-68
2023/09/20 16:10:46;;;;;;;0.30;0.20;;;25.30;79.60;;;;;;4937680;29;20934;-67
2023/09/20 16:13:13;;;;;;;0.30;0.20;;;25.30;80.20;;;;;;4955071;29;20783;-68
2023/09/20 16:15:40;;;;;;;0.30;0.20;;;25.30;81.30;;;;;;4954114;29;20440;-62
2023/09/20 16:18:06;;;;;;;0.30;0.20;;;25.30;81.60;;;;;;4954842;29;20442;-62
2023/09/20 16:20:33;;;;;;;0.30;0.30;;;25.20;81.20;;;;;;4955364;29;20402;-62
2023/09/20 16:23:00;;;;;;;0.30;0.30;;;25.20;81.60;;;;;;4954812;29;20409;-61
2023/09/20 16:25:26;;;;;;;0.30;0.30;;;25.10;82.10;;;;;;4955945;28;20799;-70
2023/09/20 16:27:52;;;;;;;0.30;0.20;;;25.10;82.90;;;;;;4958459;29;20393;-67
2023/09/20 16:30:20;;;;;;;0.30;0.30;;;25.00;83.00;;;;;;4958334;29;20200;-66
2023/09/20 16:32:46;;;;;;;0.30;0.20;;;25.00;82.80;;;;;;4958132;29;20711;-67
2023/09/20 16:35:14;;;;;;;0.30;0.30;;;24.90;83.00;;;;;;4958054;29;20445;-67
2023/09/20 16:37:39;;;;;;;0.40;0.40;;;24.90;83.50;;;;;;4958408;29;20420;-71
2023/09/20 16:40:05;;;;;;;0.30;0.30;;;24.80;83.60;;;;;;4958438;29;20426;-69
2023/09/20 16:42:31;;;;;;;0.30;0.30;;;24.80;84.50;;;;;;4941100;29;20195;-71
2023/09/20 16:44:57;;;;;;;0.30;0.20;;;24.70;85.00;;;;;;4940218;29;20450;-67
2023/09/20 16:47:22;;;;;;;0.30;0.30;;;24.60;85.80;;;;;;4958329;29;20185;-69
2023/09/20 16:49:50;;;;;;;0.30;0.20;;;24.50;86.10;;;;;;4958312;29;20180;-68
2023/09/20 16:52:15;;;;;;;0.40;0.40;;;24.50;86.40;;;;;;4957972;29;20228;-69
2023/09/20 16:54:41;;;;;;;0.30;0.20;;;24.40;87.00;;;;;;4939919;29;20452;-68
2023/09/20 16:57:07;;;;;;;0.30;0.30;;;24.30;87.50;;;;;;4958076;29;20176;-68
2023/09/20 16:59:36;;;;;;;0.37;0.37;;;24.20;87.70;;;;;;4957909;29;20201;-70
2023/09/20 17:02:01;;;;;;;0.30;0.30;;;24.20;88.30;;;;;;4957725;29;20444;-72
2023/09/20 17:04:32;;;;;;;0.30;0.30;;;24.00;88.70;;;;;;4957348;29;20788;-69
2023/09/20 17:06:58;;;;;;;0.30;0.20;;;24.00;89.10;;;;;;4957866;28;20197;-68
2023/09/20 17:09:23;;;;;;;0.30;0.20;;;23.80;89.40;;;;;;4957504;29;20578;-71
2023/09/20 17:11:50;;;;;;;0.60;0.60;;;23.80;89.80;;;;;;4957720;29;20180;-72
2023/09/20 17:14:16;;;;;;;0.30;0.30;;;23.60;90.00;;;;;;4957363;29;20268;-68
2023/09/20 17:16:42;;;;;;;0.40;0.30;;;23.50;90.30;;;;;;4957403;29;20466;-67
2023/09/20 17:19:10;;;;;;;0.80;0.50;;;23.40;90.50;;;;;;4957535;29;20606;-71
2023/09/20 17:21:36;;;;;;;0.30;0.20;;;23.20;91.10;;;;;;4957640;29;20405;-67
2023/09/20 17:24:04;;;;;;;0.30;0.27;;;23.10;91.80;;;;;;4956938;29;20425;-69
2023/09/20 17:26:30;;;;;;;0.30;0.30;;;23.00;91.70;;;;;;4957303;29;20446;-66
2023/09/20 17:28:58;;;;;;;0.50;0.37;;;23.00;91.80;;;;;;4957463;29;20419;-69
2023/09/20 17:31:24;;;;;;;0.30;0.20;;;22.80;92.00;;;;;;4957497;29;20443;-69